Terminal Aerodrome Forecast
Issued by NWS

Home | Current Version | Previous Version | Text Only | Print | Product List | Glossary On
Versions: 1 2 3 4 5 6 7 8 9 10 11 12 13
557
FTUS41 KPBZ 230520
TAFHLG
TAF
KHLG 230520Z 2306/2406 14004KT P6SM BKN100
     FM231500 15015G25KT P6SM -SHRA BKN050
     FM232200 16012G25KT 4SM RA OVC010
     FM240400 18012G18KT P6SM OVC010=

USA.gov is the U.S. government's official web portal to all federal, state and local government web resources and services.